Time;durP1;ratioP1;P1;durP2;ratioP2;P2;SDS_P1;SDS_P2;PMS_P1;PMS_P2;Temp;Humidity;BMP_temperature;BMP_pressure;BME280_temperature;BME280_humidity;BME280_pressure;Samples;Min_cycle;Max_cycle;Signal;HPM_P1;HPM_P2
2022/03/26 00:02:18;;;;;;;29.52;13.93;;;;;;;10.31;55.25;101085.09;5007291;28;20551;-69
2022/03/26 00:04:43;;;;;;;29.75;13.85;;;;;;;10.28;55.47;101087.78;5003850;28;20026;-69
2022/03/26 00:07:09;;;;;;;31.52;15.18;;;;;;;10.22;56.85;101096.72;4985606;28;20544;-69
2022/03/26 00:09:35;;;;;;;30.13;15.57;;;;;;;10.19;56.67;101094.13;4984182;28;20028;-69
2022/03/26 00:12:01;;;;;;;27.85;14.52;;;;;;;10.05;57.03;101085.41;4984444;28;20024;-69
2022/03/26 00:14:26;;;;;;;36.67;14.57;;;;;;;10.06;57.40;101094.25;5000367;28;20034;-69
2022/03/26 00:16:52;;;;;;;30.90;13.18;;;;;;;10.05;57.14;101093.38;5005352;28;20034;-69
2022/03/26 00:19:18;;;;;;;27.60;14.02;;;;;;;10.07;56.36;101091.59;5011870;28;20025;-69
2022/03/26 00:21:45;;;;;;;30.00;15.32;;;;;;;10.04;57.22;101091.63;5008330;28;20030;-69
2022/03/26 00:24:10;;;;;;;29.98;14.95;;;;;;;9.95;56.60;101078.44;5001894;28;20396;-69
2022/03/26 00:26:36;;;;;;;32.58;15.15;;;;;;;10.00;57.50;101087.25;4983662;28;20014;-69
2022/03/26 00:29:01;;;;;;;26.80;13.73;;;;;;;10.03;58.09;101089.00;5000705;28;20026;-69
2022/03/26 00:31:26;;;;;;;31.73;14.15;;;;;;;9.99;58.59;101080.19;5007857;28;20029;-69
2022/03/26 00:33:53;;;;;;;31.08;13.57;;;;;;;9.99;57.55;101093.47;4992516;28;20393;-69
2022/03/26 00:36:20;;;;;;;28.17;14.05;;;;;;;9.92;58.46;101081.16;5010394;28;20026;-69
2022/03/26 00:38:45;;;;;;;31.08;14.40;;;;;;;9.84;57.65;101072.41;4993252;28;20117;-69
2022/03/26 00:41:11;;;;;;;38.63;15.50;;;;;;;9.81;58.49;101083.06;5011260;28;20108;-69
2022/03/26 00:43:36;;;;;;;29.98;13.68;;;;;;;9.62;59.12;101060.28;4993553;28;20033;-70
2022/03/26 00:46:02;;;;;;;29.35;13.48;;;;;;;9.70;59.70;101078.78;5009737;28;20046;-69
2022/03/26 00:48:27;;;;;;;25.92;13.45;;;;;;;9.64;59.06;101085.03;4987625;28;20034;-69
2022/03/26 00:50:52;;;;;;;31.40;15.00;;;;;;;9.57;59.78;101083.34;4991611;28;20109;-69
2022/03/26 00:53:18;;;;;;;31.05;14.25;;;;;;;9.51;60.28;101086.09;4990974;28;20022;-69
2022/03/26 00:55:43;;;;;;;28.55;13.82;;;;;;;9.47;60.13;101086.16;4991364;28;20018;-69
2022/03/26 00:58:09;;;;;;;30.63;14.90;;;;;;;9.30;60.56;101062.44;4991600;28;20034;-69
2022/03/26 01:00:34;;;;;;;27.02;13.23;;;;;;;9.33;61.26;101073.91;4990970;28;20378;-69
2022/03/26 01:03:02;;;;;;;31.15;15.30;;;;;;;9.31;61.84;101085.41;4991320;28;20034;-69
2022/03/26 01:05:28;;;;;;;29.73;13.55;;;;;;;9.32;61.39;101089.84;4991523;28;20033;-69
2022/03/26 01:07:53;;;;;;;28.85;13.55;;;;;;;9.31;62.18;101086.31;4991555;28;20760;-69
2022/03/26 01:10:19;;;;;;;28.25;14.32;;;;;;;9.30;61.66;101089.88;4992316;28;20048;-69
2022/03/26 01:12:45;;;;;;;29.48;15.88;;;;;;;9.33;61.06;101091.59;4995121;28;20026;-69
2022/03/26 01:15:10;;;;;;;29.13;13.65;;;;;;;9.41;59.85;101094.19;4977333;28;20022;-69
2022/03/26 01:17:36;;;;;;;29.50;15.00;;;;;;;9.49;60.08;101082.56;4995348;28;20038;-69
2022/03/26 01:20:02;;;;;;;34.35;15.70;;;;;;;9.51;59.70;101067.50;4994908;28;20045;-69
2022/03/26 01:22:28;;;;;;;28.85;13.90;;;;;;;9.60;59.30;101086.00;4977595;28;20026;-69
2022/03/26 01:24:53;;;;;;;29.45;13.23;;;;;;;9.67;58.64;101084.16;4994858;28;20081;-69
2022/03/26 01:27:18;;;;;;;30.45;14.80;;;;;;;9.76;57.43;101084.91;5005631;28;20022;-69
2022/03/26 01:29:44;;;;;;;29.45;14.02;;;;;;;9.76;57.64;101082.25;5014284;28;20033;-69
2022/03/26 01:32:11;;;;;;;29.15;14.15;;;;;;;9.80;58.00;101086.59;5001737;28;20378;-69
2022/03/26 01:34:37;;;;;;;34.80;13.23;;;;;;;9.68;57.64;101067.28;4994443;28;20030;-70
2022/03/26 01:37:03;;;;;;;24.27;12.38;;;;;;;9.81;57.77;101083.06;4993763;28;20049;-69
2022/03/26 01:39:29;;;;;;;32.10;13.77;;;;;;;9.70;57.98;101066.41;4994786;28;20058;-69
2022/03/26 01:41:59;;;;;;;30.35;12.85;;;;;;;9.74;58.65;101076.06;4991379;28;20385;-69
2022/03/26 01:44:25;;;;;;;26.23;13.38;;;;;;;9.58;58.56;101069.19;4994417;28;20049;-69
2022/03/26 01:46:53;;;;;;;31.38;13.80;;;;;;;9.63;58.58;101082.41;4994197;28;20076;-69
2022/03/26 01:49:19;;;;;;;29.13;12.88;;;;;;;9.69;58.14;101082.31;4994453;28;20045;-69
2022/03/26 01:51:45;;;;;;;29.90;13.75;;;;;;;9.70;57.93;101085.00;4994592;28;20030;-69
2022/03/26 01:54:12;;;;;;;27.85;13.27;;;;;;;9.70;58.66;101085.00;4993699;28;20464;-69
2022/03/26 01:56:39;;;;;;;28.05;12.70;;;;;;;9.61;58.60;101074.47;4994400;28;20024;-69
2022/03/26 01:59:08;;;;;;;26.80;11.95;;;;;;;9.65;58.62;101081.50;4994240;28;20050;-69
2022/03/26 02:01:35;;;;;;;24.10;12.82;;;;;;;9.53;58.23;101071.03;4994552;28;20023;-69
2022/03/26 02:04:05;;;;;;;30.92;13.90;;;;;;;9.48;57.66;101075.50;4994394;28;20062;-69
2022/03/26 02:06:32;;;;;;;29.80;13.63;;;;;;;9.45;58.32;101069.34;4994284;28;20031;-69
2022/03/26 02:09:01;;;;;;;25.17;12.52;;;;;;;9.50;58.97;101079.03;4994083;28;20106;-68
2022/03/26 02:11:31;;;;;;;27.23;11.43;;;;;;;9.52;58.83;101079.91;4975375;28;20034;-69
2022/03/26 02:13:59;;;;;;;30.88;13.30;;;;;;;9.40;58.77;101073.81;4994064;28;20101;-69
2022/03/26 02:16:25;;;;;;;26.70;12.88;;;;;;;9.38;58.59;101064.97;4993911;28;20037;-69
2022/03/26 02:18:52;;;;;;;24.98;12.15;;;;;;;9.36;58.88;101067.66;4993873;28;20034;-69
2022/03/26 02:21:19;;;;;;;31.63;12.68;;;;;;;9.39;59.27;101080.91;4994124;28;20058;-69
2022/03/26 02:23:46;;;;;;;29.30;14.40;;;;;;;9.36;59.07;101072.97;4993264;28;20084;-69
2022/03/26 02:26:20;;;;;;;29.52;13.13;;;;;;;9.32;58.47;101055.34;4993943;28;20026;-69
2022/03/26 02:28:46;;;;;;;25.50;11.18;;;;;;;9.42;58.99;101078.25;5001247;28;20033;-69
2022/03/26 02:31:14;;;;;;;28.48;13.38;;;;;;;9.37;59.04;101080.06;4993782;28;20038;-69
2022/03/26 02:33:40;;;;;;;27.00;12.82;;;;;;;9.39;59.76;101077.38;4994024;28;20042;-69
2022/03/26 02:36:06;;;;;;;27.33;13.05;;;;;;;9.39;58.52;101083.56;4993884;28;20014;-69
2022/03/26 02:38:32;;;;;;;29.45;12.35;;;;;;;9.45;59.03;101077.31;4993704;28;20030;-69
2022/03/26 02:40:58;;;;;;;28.10;13.60;;;;;;;9.50;57.97;101080.78;4992555;28;20030;-69
2022/03/26 02:43:23;;;;;;;29.55;12.77;;;;;;;9.43;57.43;101066.72;4993031;28;20030;-69
2022/03/26 02:45:49;;;;;;;30.40;11.98;;;;;;;9.48;57.44;101083.47;4993656;28;20054;-69
2022/03/26 02:48:14;;;;;;;26.70;13.25;;;;;;;9.36;57.42;101067.66;4993792;28;20035;-69
2022/03/26 02:50:44;;;;;;;28.05;12.55;;;;;;;9.40;57.71;101084.44;4992343;28;20064;-69
2022/03/26 02:53:11;;;;;;;31.95;12.75;;;;;;;9.27;57.68;101071.28;4993210;28;20034;-69
2022/03/26 02:55:37;;;;;;;29.10;12.68;;;;;;;9.37;57.82;101081.81;4993426;28;20381;-69
2022/03/26 02:58:03;;;;;;;31.25;12.70;;;;;;;9.31;57.74;101072.13;4976144;28;20027;-69
2022/03/26 03:00:28;;;;;;;24.85;12.32;;;;;;;9.29;58.80;101064.19;4993490;28;20501;-69
2022/03/26 03:02:54;;;;;;;28.05;12.00;;;;;;;9.19;59.09;101053.72;4978348;28;20101;-69
2022/03/26 03:05:19;;;;;;;25.65;11.52;;;;;;;9.25;58.60;101069.56;4977694;28;20021;-69
2022/03/26 03:07:45;;;;;;;29.20;12.88;;;;;;;9.18;58.17;101068.75;4993266;28;20088;-69
2022/03/26 03:10:15;;;;;;;29.67;12.30;;;;;;;9.28;58.02;101090.75;4993318;28;20031;-69
2022/03/26 03:12:44;;;;;;;26.42;12.23;;;;;;;9.24;57.90;101068.66;4976215;28;20081;-69
2022/03/26 03:15:16;;;;;;;25.30;12.98;;;;;;;9.25;57.88;101070.44;4993017;28;20026;-69
2022/03/26 03:17:42;;;;;;;26.88;12.75;;;;;;;9.21;58.24;101071.38;4993259;28;20059;-69
2022/03/26 03:20:10;;;;;;;28.50;12.13;;;;;;;9.16;58.18;101070.53;4975213;28;20026;-69
2022/03/26 03:22:36;;;;;;;26.13;13.05;;;;;;;9.11;58.44;101061.72;4993264;28;20033;-69
2022/03/26 03:25:03;;;;;;;26.80;12.45;;;;;;;8.99;57.89;101047.72;4992990;28;20425;-69
2022/03/26 03:27:29;;;;;;;25.02;11.15;;;;;;;9.10;58.03;101070.59;4986093;28;20026;-69
2022/03/26 03:29:54;;;;;;;23.88;11.80;;;;;;;9.11;57.95;101077.66;4990088;28;20149;-69
2022/03/26 03:32:20;;;;;;;25.15;12.93;;;;;;;9.17;57.67;101076.72;4992713;28;20188;-69
2022/03/26 03:34:45;;;;;;;26.58;11.98;;;;;;;9.08;57.38;101075.03;4991827;28;20091;-69
2022/03/26 03:37:11;;;;;;;24.73;11.43;;;;;;;9.12;57.83;101068.81;4992284;28;20072;-69
2022/03/26 03:39:36;;;;;;;26.95;12.70;;;;;;;9.11;57.96;101066.16;4992015;28;20033;-69
2022/03/26 03:42:03;;;;;;;22.02;11.68;;;;;;;9.06;58.89;101068.00;4974295;28;20540;-69
2022/03/26 03:44:28;;;;;;;25.70;12.23;;;;;;;9.02;58.69;101060.94;4992689;28;20436;-69
2022/03/26 03:46:53;;;;;;;27.08;11.48;;;;;;;8.89;58.60;101051.34;4992391;28;20038;-69
2022/03/26 03:49:19;;;;;;;26.08;12.00;;;;;;;8.86;59.46;101049.59;4992504;28;20033;-69
2022/03/26 03:51:45;;;;;;;26.98;12.07;;;;;;;8.93;59.79;101066.31;4992348;28;20045;-69
2022/03/26 03:54:10;;;;;;;27.83;12.38;;;;;;;8.96;59.40;101061.03;4992212;28;20034;-69
2022/03/26 03:56:36;;;;;;;26.45;12.98;;;;;;;8.89;59.19;101056.66;4992293;28;20030;-69
2022/03/26 03:59:01;;;;;;;27.35;11.68;;;;;;;8.93;59.24;101061.91;4992640;28;20438;-69
2022/03/26 04:01:27;;;;;;;25.92;12.60;;;;;;;8.93;59.19;101061.91;4992234;28;20477;-69
2022/03/26 04:03:52;;;;;;;29.33;12.43;;;;;;;8.90;59.29;101061.06;4992441;28;20030;-69
2022/03/26 04:06:18;;;;;;;23.60;10.77;;;;;;;8.84;59.83;101063.78;4991971;28;20400;-69
2022/03/26 04:08:43;;;;;;;23.00;11.98;;;;;;;8.74;60.06;101054.13;4991192;28;20037;-69
2022/03/26 04:11:09;;;;;;;21.15;11.75;;;;;;;8.66;59.50;101045.38;4991871;28;20064;-69
2022/03/26 04:13:34;;;;;;;23.85;11.95;;;;;;;8.76;60.03;101060.31;4992476;28;20030;-69
2022/03/26 04:16:00;;;;;;;23.02;11.38;;;;;;;8.74;60.13;101059.44;4992015;28;20018;-69
2022/03/26 04:18:26;;;;;;;29.50;12.10;;;;;;;8.65;59.95;101060.41;4992066;28;20507;-69
2022/03/26 04:20:53;;;;;;;25.33;10.48;;;;;;;8.59;59.80;101060.44;4992095;28;20026;-69
2022/03/26 04:23:19;;;;;;;29.23;13.90;;;;;;;8.66;59.90;101070.13;5000685;28;20030;-69
2022/03/26 04:25:45;;;;;;;24.15;10.50;;;;;;;8.69;59.36;101067.44;4990420;28;20080;-69
2022/03/26 04:28:10;;;;;;;31.35;12.68;;;;;;;8.65;60.40;101064.84;4990993;28;20485;-69
2022/03/26 04:30:36;;;;;;;22.63;11.10;;;;;;;8.64;59.53;101066.59;4992073;28;20029;-69
2022/03/26 04:33:01;;;;;;;25.50;11.95;;;;;;;8.68;59.34;101057.72;4992043;28;20413;-69
2022/03/26 04:35:26;;;;;;;27.05;12.25;;;;;;;8.63;58.84;101053.34;4991775;28;20112;-69
2022/03/26 04:37:55;;;;;;;25.60;11.10;;;;;;;8.62;59.38;101056.88;4992214;28;20385;-69
2022/03/26 04:40:21;;;;;;;23.48;10.27;;;;;;;8.72;58.41;101063.88;4992002;28;20481;-68
2022/03/26 04:42:47;;;;;;;31.08;11.02;;;;;;;8.75;58.46;101066.50;4990676;28;20033;-68
2022/03/26 04:45:12;;;;;;;27.00;11.43;;;;;;;8.77;58.72;101065.59;4992374;28;20022;-68
2022/03/26 04:47:38;;;;;;;24.42;12.05;;;;;;;8.75;58.33;101066.50;5014746;28;20124;-68
2022/03/26 04:50:06;;;;;;;28.02;10.98;;;;;;;8.69;58.17;101071.84;4997285;28;20367;-68
2022/03/26 04:52:31;;;;;;;24.27;11.85;;;;;;;8.67;58.65;101074.53;4995864;28;20030;-68
2022/03/26 04:54:57;;;;;;;24.10;10.27;;;;;;;8.71;58.68;101086.88;4995090;28;20378;-68
2022/03/26 04:57:22;;;;;;;28.35;10.57;;;;;;;8.71;58.59;101072.72;4995763;28;20145;-68
2022/03/26 04:59:48;;;;;;;33.67;11.70;;;;;;;8.64;59.08;101073.66;4995931;28;20030;-67
2022/03/26 05:02:13;;;;;;;33.25;11.30;;;;;;;8.71;59.63;101084.22;4985652;28;20023;-67
2022/03/26 05:04:39;;;;;;;36.55;11.10;;;;;;;8.65;59.90;101080.75;4976278;28;20382;-67
2022/03/26 05:07:45;;;;;;;37.42;13.05;;;;;;;8.56;59.99;101086.09;4976094;28;20023;-68
2022/03/26 05:09:50;;;;;;;24.30;11.07;;;;;;;8.56;60.68;101087.00;4976266;28;20042;-69
2022/03/26 05:12:17;;;;;;;21.30;9.80;;;;;;;8.56;60.23;101087.00;4975882;28;20026;-69
2022/03/26 05:14:42;;;;;;;26.42;10.25;;;;;;;8.57;60.41;101088.75;4976009;28;20493;-69
2022/03/26 05:17:08;;;;;;;21.65;10.73;;;;;;;8.46;59.72;101065.84;4984294;28;20129;-69
2022/03/26 05:19:33;;;;;;;18.55;9.88;;;;;;;8.20;59.39;101038.63;4978224;28;20525;-69
2022/03/26 05:21:58;;;;;;;24.02;10.57;;;;;;;8.43;60.44;101087.97;5012370;28;20036;-68
2022/03/26 05:24:24;;;;;;;22.73;11.13;;;;;;;8.48;59.36;101093.25;5015068;28;20030;-68
2022/03/26 05:26:50;;;;;;;24.95;10.20;;;;;;;8.48;59.33;101103.84;5009789;28;20097;-68
2022/03/26 05:29:15;;;;;;;24.25;9.93;;;;;;;8.46;59.27;101106.50;4995348;28;20022;-68
2022/03/26 05:31:41;;;;;;;22.17;10.52;;;;;;;8.44;58.80;101091.50;4994498;28;20049;-68
2022/03/26 05:34:06;;;;;;;28.58;10.07;;;;;;;8.49;58.58;101105.59;4995356;28;20022;-68
2022/03/26 05:36:31;;;;;;;22.13;11.52;;;;;;;8.45;58.79;101087.97;4994808;28;20026;-68
2022/03/26 05:38:57;;;;;;;21.65;11.13;;;;;;;8.63;59.23;101109.91;4994762;28;20045;-68
2022/03/26 05:41:23;;;;;;;20.75;10.75;;;;;;;8.67;59.13;101116.06;4975734;28;20560;-68
2022/03/26 05:43:49;;;;;;;24.80;9.80;;;;;;;8.73;58.90;101118.69;4994756;28;20026;-68
2022/03/26 05:46:15;;;;;;;23.67;12.40;;;;;;;8.77;58.70;101129.28;4994354;28;20041;-68
2022/03/26 05:48:41;;;;;;;24.50;10.95;;;;;;;8.80;58.88;101117.72;4995072;28;20034;-68
2022/03/26 05:51:06;;;;;;;23.00;10.27;;;;;;;9.01;58.75;101131.72;4994613;28;20033;-68
2022/03/26 05:53:32;;;;;;;20.25;8.48;;;;;;;9.17;58.43;101129.81;4994577;28;20088;-68
2022/03/26 05:55:58;;;;;;;23.85;11.57;;;;;;;9.15;58.21;101126.28;4994569;28;20034;-68
2022/03/26 05:58:23;;;;;;;22.75;9.05;;;;;;;9.22;57.34;101122.69;4993746;28;20026;-69
2022/03/26 06:00:49;;;;;;;25.33;8.80;;;;;;;9.40;57.06;101145.50;4994586;28;20470;-69
2022/03/26 06:03:18;;;;;;;19.75;9.68;;;;;;;9.46;57.15;101122.44;4977042;28;20030;-69
2022/03/26 06:05:46;;;;;;;23.95;10.75;;;;;;;9.82;55.34;101137.97;4957826;28;20026;-69
2022/03/26 06:08:11;;;;;;;20.60;8.85;;;;;;;10.18;54.15;101148.16;4975055;28;20077;-69
2022/03/26 06:10:37;;;;;;;22.92;10.68;;;;;;;10.57;53.35;101133.47;4975015;28;20054;-69
2022/03/26 06:13:02;;;;;;;21.75;10.95;;;;;;;11.33;51.42;101149.97;4957401;28;20497;-69
2022/03/26 06:15:28;;;;;;;21.80;9.85;;;;;;;12.26;50.19;101144.56;4986260;28;20029;-69
2022/03/26 06:17:53;;;;;;;21.38;9.68;;;;;;;13.08;46.50;101148.91;4998932;28;20096;-69
2022/03/26 06:20:19;;;;;;;24.38;10.55;;;;;;;14.27;45.01;101151.88;4994155;28;20030;-69
2022/03/26 06:22:44;;;;;;;19.13;9.15;;;;;;;15.22;43.09;101150.66;4994511;28;20027;-69
2022/03/26 06:25:10;;;;;;;24.55;9.88;;;;;;;16.05;41.42;101126.22;4994277;28;20030;-69
2022/03/26 06:27:35;;;;;;;19.25;9.43;;;;;;;16.88;39.88;101142.69;4993860;28;20491;-69
2022/03/26 06:30:01;;;;;;;20.95;9.80;;;;;;;17.34;36.92;101150.59;4976732;28;20030;-69
2022/03/26 06:32:26;;;;;;;25.63;11.98;;;;;;;17.88;36.86;101160.81;4994188;28;20341;-69
2022/03/26 06:34:52;;;;;;;22.30;10.13;;;;;;;18.20;36.39;101146.78;4994053;28;20040;-69
2022/03/26 06:37:20;;;;;;;22.85;10.63;;;;;;;18.76;35.48;101160.34;4976684;28;20129;-69
2022/03/26 06:39:45;;;;;;;24.38;9.80;;;;;;;18.96;35.26;101154.84;4993913;28;20100;-70
2022/03/26 06:42:11;;;;;;;17.95;9.70;;;;;;;19.63;34.43;101158.66;4992274;28;20022;-69
2022/03/26 06:44:36;;;;;;;22.27;11.52;;;;;;;20.22;33.14;101167.22;4993548;28;20022;-69
2022/03/26 06:47:02;;;;;;;18.38;9.23;;;;;;;20.57;33.45;101155.34;4993587;28;20045;-69
2022/03/26 06:49:30;;;;;;;23.75;9.93;;;;;;;20.66;32.66;101154.81;4993969;28;20042;-69
2022/03/26 06:51:56;;;;;;;24.30;10.43;;;;;;;20.97;32.27;101163.91;4975805;28;20386;-69
2022/03/26 06:54:21;;;;;;;19.80;8.98;;;;;;;21.38;31.28;101173.25;4993214;28;20026;-69
2022/03/26 06:56:47;;;;;;;22.45;10.32;;;;;;;21.75;30.96;101167.38;4993420;28;20018;-69
2022/03/26 06:59:12;;;;;;;23.83;10.95;;;;;;;22.11;30.00;101167.88;4993632;28;20120;-69
2022/03/26 07:01:38;;;;;;;24.83;10.75;;;;;;;22.38;30.39;101177.00;4991900;28;20444;-69
2022/03/26 07:04:03;;;;;;;22.83;9.52;;;;;;;22.13;29.77;101182.22;4993591;28;20026;-69
2022/03/26 07:06:29;;;;;;;23.70;11.15;;;;;;;22.16;30.12;101182.91;4993179;28;20085;-69
2022/03/26 07:08:54;;;;;;;24.45;9.63;;;;;;;22.24;29.67;101173.44;4993271;28;20041;-70
2022/03/26 07:11:20;;;;;;;18.88;9.40;;;;;;;22.33;30.30;101186.38;4995875;28;20482;-70
2022/03/26 07:13:45;;;;;;;22.42;10.30;;;;;;;21.91;29.51;101192.63;4983660;28;20073;-70
2022/03/26 07:16:11;;;;;;;20.08;9.93;;;;;;;21.49;29.07;101178.91;4993207;28;20473;-70
2022/03/26 07:18:36;;;;;;;22.30;9.65;;;;;;;21.05;30.66;101183.31;4993050;28;20072;-70
2022/03/26 07:21:02;;;;;;;20.23;10.63;;;;;;;21.15;30.80;101188.13;4975363;28;20045;-70
2022/03/26 07:23:28;;;;;;;21.73;9.35;;;;;;;21.19;29.84;101196.91;4992643;28;20036;-69
2022/03/26 07:25:53;;;;;;;22.05;11.35;;;;;;;21.08;30.11;101189.44;4991233;28;20054;-69
2022/03/26 07:28:19;;;;;;;20.65;10.10;;;;;;;21.67;30.05;101189.53;4992373;28;20477;-69
2022/03/26 07:30:44;;;;;;;27.52;11.30;;;;;;;21.54;29.82;101188.50;4993105;28;20030;-69
2022/03/26 07:33:10;;;;;;;24.25;9.75;;;;;;;21.05;30.94;101188.72;4992977;28;20393;-69
2022/03/26 07:35:35;;;;;;;24.55;11.30;;;;;;;20.82;30.08;101181.88;4992339;28;20054;-69
2022/03/26 07:38:01;;;;;;;20.95;9.57;;;;;;;20.94;30.24;101187.47;4992440;28;20036;-69
2022/03/26 07:40:26;;;;;;;19.73;9.90;;;;;;;20.70;31.23;101182.56;4992458;28;20080;-69
2022/03/26 07:42:52;;;;;;;25.23;10.40;;;;;;;20.21;31.08;101178.09;4992880;28;20084;-69
2022/03/26 07:45:17;;;;;;;27.58;11.13;;;;;;;20.65;31.25;101185.53;4992590;28;20034;-69
2022/03/26 07:47:43;;;;;;;25.33;11.68;;;;;;;19.95;31.98;101174.03;4991874;28;20042;-69
2022/03/26 07:50:09;;;;;;;23.92;10.48;;;;;;;19.61;32.71;101190.25;4990733;28;20027;-69
2022/03/26 07:52:35;;;;;;;24.15;10.68;;;;;;;19.73;32.89;101189.63;4991550;28;20029;-69
2022/03/26 07:55:00;;;;;;;23.20;10.52;;;;;;;19.48;33.38;101191.81;4990705;28;20034;-69
2022/03/26 07:57:27;;;;;;;22.00;10.20;;;;;;;18.91;33.98;101190.13;4991300;28;20061;-69
2022/03/26 07:59:53;;;;;;;20.73;10.18;;;;;;;19.51;34.12;101192.53;4992449;28;20030;-69
2022/03/26 08:02:18;;;;;;;26.08;10.10;;;;;;;20.25;33.02;101196.75;4971557;28;20034;-69
2022/03/26 08:04:45;;;;;;;23.25;9.55;;;;;;;20.39;32.27;101188.78;4955471;28;20060;-69
2022/03/26 08:07:11;;;;;;;23.90;10.98;;;;;;;20.21;33.14;101195.19;4972751;28;20018;-69
2022/03/26 08:09:36;;;;;;;21.27;11.20;;;;;;;20.65;33.03;101201.75;5002332;28;20037;-69
2022/03/26 08:12:03;;;;;;;27.02;11.50;;;;;;;20.53;31.84;101199.72;4974548;28;20860;-69
2022/03/26 08:14:30;;;;;;;23.08;10.75;;;;;;;19.98;32.28;101208.13;4992189;28;20038;-69
2022/03/26 08:16:55;;;;;;;22.13;11.02;;;;;;;19.84;32.52;101195.31;4992076;28;20046;-70
2022/03/26 08:19:21;;;;;;;25.75;9.90;;;;;;;19.98;31.76;101202.72;4991336;28;20121;-69
2022/03/26 08:21:47;;;;;;;18.70;9.80;;;;;;;19.98;32.54;101211.72;4989757;28;20458;-69
2022/03/26 08:24:13;;;;;;;22.13;11.25;;;;;;;19.84;32.43;101206.13;4991752;28;20056;-69
2022/03/26 08:26:39;;;;;;;23.80;11.93;;;;;;;19.68;32.38;101197.06;4970623;28;20069;-69
2022/03/26 08:29:05;;;;;;;21.48;11.07;;;;;;;19.39;32.66;101203.94;4989005;28;20027;-69
2022/03/26 08:31:31;;;;;;;22.63;10.40;;;;;;;19.41;33.43;101207.44;4990625;28;20449;-69
2022/03/26 08:33:57;;;;;;;25.90;11.18;;;;;;;19.07;33.85;101195.66;4990184;28;20394;-69
2022/03/26 08:36:24;;;;;;;25.50;13.23;;;;;;;19.49;34.65;101197.13;4988787;28;20450;-69
2022/03/26 08:38:50;;;;;;;24.38;10.75;;;;;;;19.91;32.62;101194.06;4988537;28;20058;-69
2022/03/26 08:41:17;;;;;;;25.58;11.60;;;;;;;20.24;33.79;101183.34;4990556;28;20069;-69
2022/03/26 08:43:43;;;;;;;25.30;11.25;;;;;;;20.25;33.28;101202.16;4989334;28;20674;-69
2022/03/26 08:46:09;;;;;;;21.17;11.07;;;;;;;20.51;32.22;101203.47;4990048;28;20043;-69
2022/03/26 08:48:34;;;;;;;23.58;11.27;;;;;;;20.70;32.30;101199.66;4990052;28;20037;-69
2022/03/26 08:51:00;;;;;;;26.15;11.05;;;;;;;20.69;32.34;101203.31;4988809;28;20025;-69
2022/03/26 08:53:26;;;;;;;19.25;10.60;;;;;;;20.52;32.35;101197.97;4988177;28;20077;-69
2022/03/26 08:55:52;;;;;;;28.10;14.10;;;;;;;20.84;31.62;101207.00;4971547;28;20030;-69
2022/03/26 08:58:18;;;;;;;29.13;11.55;;;;;;;20.88;32.88;101195.94;4989905;28;20034;-69
2022/03/26 09:00:47;;;;;;;23.33;12.10;;;;;;;21.52;30.81;101195.84;4989276;28;20026;-69
2022/03/26 09:03:17;;;;;;;26.88;12.60;;;;;;;21.49;31.09;101195.16;4971802;28;20030;-70
2022/03/26 09:05:44;;;;;;;22.67;11.27;;;;;;;21.83;30.21;101201.22;4975201;28;20027;-70
2022/03/26 09:08:10;;;;;;;23.20;11.45;;;;;;;21.90;30.76;101207.13;4988916;28;20453;-69
2022/03/26 09:10:35;;;;;;;20.70;11.35;;;;;;;22.14;29.93;101200.22;4989644;28;20030;-69
2022/03/26 09:13:01;;;;;;;24.15;11.43;;;;;;;21.84;30.71;101207.50;4990250;28;20066;-69
2022/03/26 09:15:26;;;;;;;27.25;12.13;;;;;;;22.39;30.66;101205.84;4989893;28;20030;-69
2022/03/26 09:17:52;;;;;;;23.08;11.27;;;;;;;22.07;30.14;101204.28;4984356;28;20478;-69
2022/03/26 09:20:17;;;;;;;22.73;11.38;;;;;;;22.69;31.04;101201.25;4988174;28;20038;-69
2022/03/26 09:22:43;;;;;;;24.20;11.45;;;;;;;23.16;30.16;101199.03;4988459;28;20108;-69
2022/03/26 09:25:09;;;;;;;22.92;11.70;;;;;;;23.34;31.05;101184.28;4989125;28;20950;-69
2022/03/26 09:27:35;;;;;;;29.65;12.30;;;;;;;23.14;30.26;101192.88;4988361;28;20097;-69
2022/03/26 09:30:00;;;;;;;22.25;10.65;;;;;;;23.20;29.45;101189.75;4988214;28;20135;-70
2022/03/26 09:32:26;;;;;;;22.98;11.75;;;;;;;23.17;29.54;101192.66;4990989;28;20041;-69
2022/03/26 09:34:51;;;;;;;26.15;11.45;;;;;;;23.01;31.37;101194.66;4991922;28;20687;-69
2022/03/26 09:37:17;;;;;;;23.58;11.40;;;;;;;23.55;29.09;101194.69;4975688;28;20544;-70
2022/03/26 09:39:43;;;;;;;24.83;12.00;;;;;;;23.78;28.98;101180.41;4992416;28;20026;-69
2022/03/26 09:42:09;;;;;;;24.42;11.65;;;;;;;24.01;30.09;101194.19;4993146;28;20156;-68
2022/03/26 09:44:36;;;;;;;23.10;12.13;;;;;;;24.18;29.06;101201.19;4974642;28;20084;-68
2022/03/26 09:47:05;;;;;;;25.45;11.90;;;;;;;23.97;29.58;101197.22;4993337;28;20042;-68
2022/03/26 09:49:31;;;;;;;22.35;11.30;;;;;;;23.77;28.55;101184.13;4975126;28;20034;-69
2022/03/26 09:51:57;;;;;;;23.25;11.95;;;;;;;24.00;28.80;101186.16;4974525;28;20042;-69
2022/03/26 09:54:23;;;;;;;24.27;11.23;;;;;;;24.04;29.82;101190.38;4991181;28;20105;-69
2022/03/26 09:56:50;;;;;;;25.25;10.90;;;;;;;24.35;28.89;101171.81;4992898;28;20426;-69
2022/03/26 09:59:22;;;;;;;24.27;11.30;;;;;;;24.95;29.08;101180.16;4992062;28;20085;-68
2022/03/26 10:01:48;;;;;;;28.93;13.20;;;;;;;25.38;27.87;101180.56;4992280;28;20034;-68
2022/03/26 10:04:18;;;;;;;25.85;11.73;;;;;;;25.08;27.23;101178.25;4998206;28;20044;-69
2022/03/26 10:06:46;;;;;;;24.02;11.50;;;;;;;24.82;28.59;101182.03;4993793;28;20025;-69
2022/03/26 10:09:11;;;;;;;24.63;11.88;;;;;;;24.78;29.08;101171.50;5004891;28;20177;-69
2022/03/26 10:11:37;;;;;;;25.75;12.27;;;;;;;25.07;27.99;101160.19;4993317;28;20382;-69
2022/03/26 10:14:03;;;;;;;22.27;11.60;;;;;;;25.11;29.60;101164.41;4992706;28;20556;-69
2022/03/26 10:16:28;;;;;;;24.00;11.45;;;;;;;25.17;27.74;101174.84;4993088;28;20655;-68
2022/03/26 10:18:57;;;;;;;26.23;11.40;;;;;;;24.62;27.92;101175.28;4991183;28;20096;-69
2022/03/26 10:21:23;;;;;;;24.77;12.27;;;;;;;25.14;29.22;101175.06;4992161;28;20053;-69
2022/03/26 10:23:53;;;;;;;26.60;11.88;;;;;;;25.90;28.20;101164.69;4986077;28;20025;-70
2022/03/26 10:26:24;;;;;;;24.98;11.40;;;;;;;26.38;28.00;101176.34;4993226;28;20109;-71
2022/03/26 10:28:57;;;;;;;20.63;11.18;;;;;;;26.04;27.45;101163.66;4976217;28;20041;-72
2022/03/26 10:34:14;;;;;;;28.65;12.30;;;;;;;25.74;27.89;101162.31;4993056;28;20033;-70
2022/03/26 10:36:54;;;;;;;23.42;11.93;;;;;;;26.28;27.65;101161.69;4993829;28;20033;-71
2022/03/26 10:39:22;;;;;;;25.88;12.30;;;;;;;25.98;28.86;101147.75;4993410;28;20157;-70
2022/03/26 10:41:49;;;;;;;29.58;12.13;;;;;;;26.45;27.87;101148.47;4993556;28;20026;-70
2022/03/26 10:44:17;;;;;;;28.58;12.38;;;;;;;26.63;26.75;101152.44;4992983;28;20117;-70
2022/03/26 10:46:55;;;;;;;25.23;12.43;;;;;;;26.65;27.82;101149.59;4993382;28;20051;-69
2022/03/26 10:49:46;;;;;;;25.55;12.05;;;;;;;26.84;28.24;101149.84;4993059;28;20054;-70
2022/03/26 10:52:14;;;;;;;21.35;11.68;;;;;;;26.93;27.19;101144.53;4990974;28;20125;-70
2022/03/26 10:54:40;;;;;;;26.30;12.88;;;;;;;27.00;27.62;101133.94;4992033;28;20026;-69
2022/03/26 10:57:06;;;;;;;27.63;14.02;;;;;;;26.74;26.23;101146.13;4992017;28;20022;-70
2022/03/26 10:59:32;;;;;;;25.63;11.50;;;;;;;26.51;26.67;101137.06;4980758;28;20140;-70
2022/03/26 11:01:58;;;;;;;25.30;12.93;;;;;;;26.60;26.82;101140.91;4991781;28;20146;-69
2022/03/26 11:04:27;;;;;;;32.55;14.90;;;;;;;26.36;26.66;101126.53;4999087;28;20069;-70
2022/03/26 11:06:54;;;;;;;29.00;14.48;;;;;;;26.41;27.94;101127.88;5011424;28;20030;-70
2022/03/26 11:09:19;;;;;;;24.90;11.90;;;;;;;26.47;27.46;101123.78;4982838;28;20038;-69
2022/03/26 11:11:47;;;;;;;28.45;13.98;;;;;;;26.79;26.56;101130.22;4991152;28;20489;-69
2022/03/26 11:14:18;;;;;;;25.35;11.77;;;;;;;26.77;26.32;101124.91;4974581;28;20022;-69